Latest Weather Observations for Evans Head

IDN60801

Issued at 6:02 pm EST Friday 28 April 2017 (issued every 30 minutes, with the page automatically refreshed every 10 minutes)

About weather observations | Map of weather stations | Latest weather observations for NSW | Other Formats
Station Details ID: 058212 Name: EVANS HEAD RAAF BOMBING RANGE AWS Lat: -29.18 Lon: 153.40 Height: 62.5 m
Data from the previous 72 hours. | See also: Recent months at Evans Head
Date/Time
EST
Temp
°C
App
Temp
°C
Dew
Point
°C
Rel
Hum
%
Delta-T
°C
Wind Press
QNH
hPa
Press
MSL
hPa
Rain since
9am
mm
Dir  Spd
km/h
Gust
km/h
Spd
kts
Gust
kts
28/06:00pm 17.4 12.2 12.9 75 2.5 SSW 32 46 17 25 1017.1 1016.9 0.0
28/05:30pm 17.3 11.7 13.2 77 2.3 SSW 35 56 19 30 1016.9 1016.7 0.0
28/05:00pm 17.9 11.4 12.8 72 2.9 SSW 39 57 21 31 1016.4 1016.2 0.0
28/04:36pm 18.4 13.2 13.5 73 2.8 SSW 33 52 18 28 1016.3 1016.1 0.0
28/04:30pm 18.4 12.4 13.3 72 2.9 SSW 37 52 20 28 1016.1 1015.9 0.0
28/04:01pm 17.9 12.0 13.6 76 2.4 SSW 37 56 20 30 1016.0 1015.8 0.0
28/04:00pm 18.0 11.8 13.7 76 2.4 SSW 39 56 21 30 1016.0 1015.8 0.0
28/03:32pm 19.0 13.5 13.6 71 3.1 SSW 35 54 19 29 1015.7 1015.5 0.0
28/03:30pm 19.0 13.1 13.6 71 3.1 SSW 37 54 20 29 1015.6 1015.4 0.0
28/03:00pm 18.7 12.6 14.0 74 2.7 SSW 39 67 21 36 1015.6 1015.4 0.0
28/02:30pm 19.0 12.4 13.6 71 3.1 SSW 41 63 22 34 1015.4 1015.2 0.0
28/02:00pm 19.1 12.0 13.3 69 3.3 S 43 61 23 33 1015.2 1015.0 0.0
28/01:30pm 19.4 14.0 13.8 70 3.2 SSW 35 61 19 33 1015.2 1015.0 0.0
28/01:00pm 19.5 14.1 13.9 70 3.2 SSW 35 59 19 32 1015.2 1015.0 0.0
28/12:31pm 19.1 13.8 13.1 68 3.4 SSW 33 52 18 28 1015.6 1015.4 0.0
28/12:30pm 19.2 14.1 13.6 70 3.2 SSW 33 50 18 27 1015.6 1015.4 0.0
28/12:00pm 19.2 14.1 13.2 68 3.4 SSW 32 50 17 27 1015.9 1015.7 0.0
28/11:40am 19.5 15.1 12.8 65 3.8 SSW 28 46 15 25 1016.2 1016.0 0.0
28/11:30am 20.2 16.3 13.2 64 4.0 SSW 26 41 14 22 1016.2 1016.0 0.0
28/11:04am 18.9 14.3 12.4 66 3.6 SSW 28 50 15 27 1016.6 1016.4 0.0
28/11:00am 19.0 15.2 12.5 66 3.6 SSW 24 39 13 21 1016.7 1016.5 0.0
28/10:30am 19.0 14.3 12.0 64 3.9 SSW 28 43 15 23 1016.9 1016.7 0.0
28/10:00am 19.1 16.1 11.9 63 4.0 SSW 19 39 10 21 1016.9 1016.7 0.0
28/09:30am 18.5 15.8 11.6 64 3.8 SW 17 30 9 16 1017.0 1016.8 0.0
28/09:00am 17.0 14.2 10.1 64 3.6 WSW 15 22 8 12 1017.2 1017.0 0.0
28/08:30am 15.9 13.4 9.6 66 3.3 WSW 13 19 7 10 1017.2 1017.0 0.0
28/08:00am 15.5 12.0 8.7 64 3.5 WSW 17 22 9 12 1017.0 1016.8 0.0
28/07:30am 14.8 12.1 9.0 68 3.0 W 13 20 7 11 1016.6 1016.4 0.0
28/07:00am 13.6 10.7 8.2 70 2.7 W 13 20 7 11 1016.1 1015.9 0.0
28/06:30am 13.7 10.3 7.7 67 3.0 WSW 15 20 8 11 1015.5 1015.3 0.0
28/06:00am 13.4 10.0 7.8 69 2.8 WSW 15 20 8 11 1014.9 1014.6 0.0
28/05:30am 13.2 9.5 8.1 71 2.5 WSW 17 22 9 12 1014.5 1014.2 0.0
28/05:00am 12.9 9.6 8.2 73 2.3 WSW 15 19 8 10 1014.3 1014.0 0.0
28/04:30am 12.8 10.0 8.7 76 2.1 WSW 13 19 7 10 1014.2 1013.9 0.0
28/04:00am 13.0 10.2 8.7 75 2.2 W 13 17 7 9 1014.0 1013.7 0.0
28/03:30am 13.2 10.1 8.7 74 2.3 W 15 19 8 10 1013.9 1013.6 0.0
28/03:00am 13.3 10.5 8.6 73 2.4 W 13 17 7 9 1014.0 1013.7 0.0
28/02:30am 13.1 9.7 9.2 77 2.0 WSW 17 22 9 12 1014.2 1013.9 0.0
28/02:00am 13.2 9.5 9.5 78 1.9 WSW 19 24 10 13 1014.4 1014.1 0.0
28/01:30am 13.2 10.0 9.8 80 1.7 WSW 17 22 9 12 1014.6 1014.3 0.0
28/01:00am 13.4 10.2 10.0 80 1.8 WSW 17 24 9 13 1015.0 1014.7 0.0
28/12:30am 13.8 10.7 10.2 79 1.9 WSW 17 24 9 13 1015.3 1015.1 0.0
28/12:00am 14.1 11.6 10.9 81 1.7 SW 15 20 8 11 1015.4 1015.2 0.0
 
Date/Time
EST
Temp
°C
App
Temp
°C
Dew
Point
°C
Rel
Hum
%
Delta-T
°C
Wind Press
QNH
hPa
Press
MSL
hPa
Rain since
9am
mm
Dir  Spd
km/h
Gust
km/h
Spd
kts
Gust
kts
27/11:30pm 14.4 11.9 11.2 81 1.7 SW 15 22 8 12 1015.5 1015.3 0.0
27/11:00pm 14.9 12.1 11.5 80 1.8 SW 17 28 9 15 1015.7 1015.5 0.0
27/10:30pm 14.9 11.3 10.7 76 2.2 SW 20 28 11 15 1015.7 1015.5 0.0
27/10:00pm 15.4 11.1 9.3 67 3.1 SSW 22 35 12 19 1015.7 1015.5 0.0
27/09:30pm 15.9 12.3 10.4 70 2.9 SW 20 32 11 17 1015.6 1015.4 0.0
27/09:00pm 16.1 12.7 10.4 69 3.0 SW 19 28 10 15 1015.3 1015.1 0.0
27/08:30pm 16.2 13.2 10.5 69 3.0 WSW 17 20 9 11 1015.0 1014.7 0.0
27/08:00pm 16.0 13.8 10.7 71 2.8 WSW 13 17 7 9 1014.8 1014.5 0.0
27/07:30pm 16.0 13.9 11.2 73 2.6 W 13 15 7 8 1014.6 1014.3 0.0
27/07:00pm 16.4 14.1 10.5 68 3.1 WSW 13 17 7 9 1014.3 1014.0 0.0
27/06:30pm 16.5 14.3 10.8 69 3.1 WSW 13 17 7 9 1013.9 1013.6 0.0
27/06:00pm 16.6 15.3 11.3 71 2.9 W 9 11 5 6 1013.8 1013.5 0.0
27/05:30pm 16.4 15.7 12.0 75 2.4 WNW 7 9 4 5 1013.7 1013.4 0.0
27/05:00pm 16.8 16.1 11.9 73 2.7 WNW 7 9 4 5 1013.4 1013.1 0.0
27/04:30pm 17.2 16.6 11.7 70 3.0 WNW 6 9 3 5 1013.0 1012.8 0.0
27/04:00pm 17.6 16.7 11.4 67 3.4 SW 7 11 4 6 1012.6 1012.4 0.0
27/03:30pm 18.1 15.8 10.5 61 4.1 SSW 13 19 7 10 1012.4 1012.2 0.0
27/03:00pm 18.5 15.8 10.3 59 4.4 SSW 15 22 8 12 1012.2 1012.0 0.0
27/02:30pm 19.3 16.7 10.8 58 4.6 SSW 15 28 8 15 1012.1 1011.9 0.0
27/02:00pm 19.0 16.4 10.8 59 4.5 SW 15 24 8 13 1012.2 1012.0 0.0
27/01:30pm 18.2 15.3 9.8 58 4.5 SW 15 20 8 11 1012.4 1012.2 0.0
27/01:00pm 18.4 15.9 11.0 62 4.0 SSW 15 22 8 12 1012.6 1012.4 0.0
27/12:30pm 18.9 16.5 9.9 56 4.8 SSW 13 20 7 11 1012.8 1012.6 0.0
27/12:00pm 19.3 16.8 9.8 54 5.1 S 13 20 7 11 1013.0 1012.8 0.0
27/11:30am 19.1 16.7 9.9 55 4.9 SW 13 20 7 11 1013.5 1013.2 0.0
27/11:00am 18.4 15.6 8.7 53 5.0 WSW 13 20 7 11 1013.6 1013.3 0.0
27/10:30am 17.5 14.7 8.4 55 4.7 WSW 13 20 7 11 1013.7 1013.4 0.0
27/10:00am 16.8 14.5 7.4 54 4.7 W 9 15 5 8 1013.9 1013.6 0.0
27/09:30am 16.5 13.4 7.4 55 4.6 WSW 13 19 7 10 1013.9 1013.6 0.0
27/09:00am 15.6 13.4 6.3 54 4.5 W 7 13 4 7 1014.0 1013.7 3.0
27/08:30am 15.0 12.4 6.0 55 4.3 W 9 17 5 9 1013.7 1013.4 3.0
27/08:00am 14.0 11.1 6.4 60 3.7 W 11 15 6 8 1013.1 1012.9 3.0
27/07:30am 13.0 9.1 5.2 59 3.6 W 15 19 8 10 1012.4 1012.2 3.0
27/07:00am 11.8 8.2 5.2 64 3.0 W 13 20 7 11 1012.4 1012.2 3.0
27/06:30am 11.0 7.4 4.9 66 2.8 W 13 17 7 9 1012.0 1011.8 3.0
27/06:00am 11.2 7.6 4.9 65 2.9 W 13 20 7 11 1011.8 1011.6 3.0
27/05:30am 11.4 7.8 5.1 65 2.9 W 13 19 7 10 1011.6 1011.4 3.0
27/05:00am 11.2 8.1 5.5 68 2.6 WSW 11 17 6 9 1011.5 1011.3 3.0
27/04:30am 11.7 7.5 5.6 66 2.8 WSW 17 22 9 12 1011.0 1010.8 3.0
27/04:00am 12.1 8.4 6.2 67 2.8 SW 15 24 8 13 1011.0 1010.8 3.0
27/03:30am 12.9 9.7 6.7 66 3.0 WSW 13 20 7 11 1010.8 1010.6 3.0
27/03:00am 13.9 10.6 6.3 60 3.7 W 13 20 7 11 1010.6 1010.4 3.0
27/02:30am 14.1 12.2 6.9 62 3.5 NW 6 11 3 6 1010.6 1010.4 3.0
27/02:00am 14.3 11.7 7.8 65 3.2 SW 11 17 6 9 1010.9 1010.7 3.0
27/01:30am 14.8 11.8 9.2 69 2.9 WSW 15 19 8 10 1011.1 1010.9 3.0
27/01:00am 15.2 12.7 9.6 69 2.9 SW 13 20 7 11 1011.4 1011.2 3.0
27/12:30am 16.0 12.6 10.5 70 2.9 SW 19 28 10 15 1010.9 1010.7 3.0
27/12:00am 16.9 13.8 11.6 71 2.9 SW 19 28 10 15 1010.8 1010.6 3.0
 
Date/Time
EST
Temp
°C
App
Temp
°C
Dew
Point
°C
Rel
Hum
%
Delta-T
°C
Wind Press
QNH
hPa
Press
MSL
hPa
Rain since
9am
mm
Dir  Spd
km/h
Gust
km/h
Spd
kts
Gust
kts
26/11:30pm 17.3 15.6 11.1 67 3.4 WNW 11 17 6 9 1010.0 1009.8 3.0
26/11:00pm 18.0 16.1 11.8 67 3.4 WNW 13 20 7 11 1010.0 1009.8 3.0
26/10:30pm 18.0 16.4 12.7 71 3.0 WNW 13 17 7 9 1010.0 1009.8 3.0
26/10:00pm 18.6 16.5 12.4 67 3.5 WNW 15 22 8 12 1009.7 1009.5 3.0
26/09:30pm 18.0 16.9 14.3 79 2.1 NW 13 19 7 10 1009.7 1009.5 3.0
26/09:00pm 17.9 16.9 14.6 81 1.9 NW 13 20 7 11 1009.5 1009.3 3.0
26/08:30pm 17.8 17.5 15.4 86 1.4 NNW 11 20 6 11 1009.1 1008.9 3.0
26/08:00pm 18.1 17.9 15.7 86 1.4 NNW 11 13 6 7 1008.7 1008.5 3.0
26/07:30pm 18.8 18.0 16.0 84 1.7 NNW 15 24 8 13 1008.4 1008.2 3.0
26/07:00pm 20.1 19.9 16.7 81 2.1 NW 13 24 7 13 1008.6 1008.4 3.0
26/06:30pm 19.9 18.7 17.1 84 1.7 NNW 19 28 10 15 1007.8 1007.6 3.0
26/06:00pm 19.0 17.8 17.0 88 1.2 NNW 19 28 10 15 1007.1 1006.9 3.0
26/05:30pm 19.0 18.5 16.8 87 1.3 NNW 15 20 8 11 1007.0 1006.8 3.0
26/05:00pm 20.0 18.8 17.4 85 1.6 NNW 20 32 11 17 1006.7 1006.5 3.0
26/04:30pm 20.9 19.7 17.5 81 2.1 NNW 20 37 11 20 1006.6 1006.4 3.0
26/04:00pm 21.9 22.0 19.1 84 1.8 N 17 32 9 17 1006.3 1006.1 3.0
26/03:30pm 20.8 20.2 18.4 86 1.5 NNW 19 26 10 14 1006.8 1006.6 3.0
26/03:00pm 21.0 20.6 18.9 88 1.3 NNW 19 30 10 16 1006.8 1006.6 3.0
26/02:30pm 21.2 21.8 19.5 90 1.1 N 15 24 8 13 1006.9 1006.7 3.0
26/02:00pm 21.0 22.1 19.7 92 0.8 NNW 13 19 7 10 1007.5 1007.3 3.0
26/01:30pm 20.5 21.9 19.5 94 0.6 NNW 11 17 6 9 1008.1 1007.9 3.0
26/01:00pm 19.9 20.1 18.6 92 0.8 NNW 15 22 8 12 1008.3 1008.1 2.8
26/12:30pm 20.0 19.3 18.7 92 0.8 N 20 30 11 16 1008.4 1008.2 2.8
26/12:00pm 20.2 19.8 18.9 92 0.8 N 19 30 10 16 1008.8 1008.6 2.8
26/11:30am 20.0 19.3 18.7 92 0.8 N 20 32 11 17 1009.9 1009.7 2.8
26/11:00am 20.2 19.9 19.2 94 0.6 N 19 26 10 14 1010.3 1010.1 2.8
26/10:30am 19.5 19.1 18.8 96 0.4 N 19 32 10 17 1010.9 1010.7 2.8
26/10:00am 18.6 18.1 17.9 96 0.4 N 17 26 9 14 1011.3 1011.1 2.6
26/09:30am 18.1 18.5 17.3 95 0.5 NNW 11 19 6 10 1011.8 1011.6 2.2
26/09:00am 17.9 17.5 17.1 95 0.5 NNW 15 22 8 12 1012.2 1012.0 3.0
26/08:30am 17.9 17.8 16.9 94 0.6 N 13 17 7 9 1012.5 1012.3 2.4
26/08:00am 18.2 18.9 17.0 93 0.7 NNW 9 13 5 7 1012.7 1012.5 0.4
26/07:30am 18.4 18.3 16.9 91 0.9 NNW 13 19 7 10 1012.2 1012.0 0.2
26/07:00am 18.1 18.5 16.3 89 1.1 N 9 17 5 9 1011.9 1011.7 0.0
26/06:30am 17.9 17.5 16.1 89 1.1 N 13 20 7 11 1011.9 1011.7 0.0
26/06:00am 18.0 16.8 16.0 88 1.2 N 17 24 9 13 1011.3 1011.1 0.0
26/05:30am 18.0 16.8 16.0 88 1.2 N 17 24 9 13 1011.4 1011.2 0.0
26/05:00am 17.9 16.6 15.7 87 1.3 N 17 24 9 13 1011.5 1011.3 0.0
26/04:30am 18.1 16.8 15.9 87 1.3 N 17 24 9 13 1011.4 1011.2 0.0
26/04:00am 17.7 17.8 15.5 87 1.3 N 9 17 5 9 1011.6 1011.4 0.0
26/03:30am 18.2 19.9 15.3 83 1.7 CALM 0 0 0 0 1011.7 1011.5 0.0
26/03:00am 17.8 19.3 15.6 87 1.3 NW 2 9 1 5 1011.6 1011.4 0.0
26/02:30am 17.4 18.5 15.6 89 1.1 NNW 4 9 2 5 1011.5 1011.3 0.0
26/02:00am 17.3 18.5 15.8 91 0.9 N 4 11 2 6 1011.8 1011.6 0.0
26/01:30am 17.3 17.6 16.0 92 0.8 N 9 13 5 7 1011.8 1011.6 0.0
26/01:00am 17.3 18.0 16.0 92 0.8 N 7 11 4 6 1012.1 1011.9 0.0
26/12:30am 17.3 17.6 16.0 92 0.8 N 9 11 5 6 1012.4 1012.2 0.0
26/12:00am 17.3 17.7 16.2 93 0.7 NNE 9 13 5 7 1012.7 1012.5 0.0
 
Date/Time
EST
Temp
°C
App
Temp
°C
Dew
Point
°C
Rel
Hum
%
Delta-T
°C
Wind Press
QNH
hPa
Press
MSL
hPa
Rain since
9am
mm
Dir  Spd
km/h
Gust
km/h
Spd
kts
Gust
kts
25/11:30pm 17.1 17.2 15.6 91 0.9 NNE 9 13 5 7 1012.9 1012.7 0.0
25/11:00pm 17.4 16.9 15.9 91 0.9 NNE 13 19 7 10 1012.8 1012.6 0.0
25/10:30pm 17.7 17.2 16.0 90 1.0 N 13 20 7 11 1013.1 1012.9 0.0
25/10:00pm 18.0 16.8 16.2 89 1.1 N 17 24 9 13 1013.4 1013.1 0.0
25/09:30pm 18.2 17.0 16.2 88 1.2 N 17 24 9 13 1013.7 1013.4 0.0
25/09:00pm 18.2 17.4 16.0 87 1.3 N 15 19 8 10 1014.2 1013.9 0.0
25/08:30pm 18.6 18.1 16.0 85 1.5 N 13 19 7 10 1014.5 1014.2 0.0
25/08:00pm 19.1 17.9 16.1 83 1.8 N 17 30 9 16 1014.5 1014.2 0.0
25/07:30pm 19.4 17.8 16.4 83 1.8 N 20 30 11 16 1014.2 1013.9 0.0
25/07:00pm 19.8 17.9 16.6 82 1.9 N 22 33 12 18 1014.0 1013.7 0.0
25/06:30pm 20.2 18.4 17.0 82 2.0 N 22 32 12 17 1013.7 1013.4 0.0

Other Formats:

Comma delimited format used in spreadsheet applications
http://www.bom.gov.au/fwo/IDN60801/IDN60801.94598.axf

JavaScript Object Notation format (JSON) in row-major order
http://www.bom.gov.au/fwo/IDN60801/IDN60801.94598.json